sensor_id;sensor_type;location;lat;lon;timestamp;pressure;altitude;pressure_sealevel;temperature
45850;BMP180;10739;52.198;20.908;2023-06-19T00:01:35;100264.00;;;18.90
45850;BMP180;10739;52.198;20.908;2023-06-19T00:04:02;100266.00;;;18.80
45850;BMP180;10739;52.198;20.908;2023-06-19T00:06:28;100273.00;;;18.80
45850;BMP180;10739;52.198;20.908;2023-06-19T00:08:55;100276.00;;;18.50
45850;BMP180;10739;52.198;20.908;2023-06-19T00:11:21;100275.00;;;18.40
45850;BMP180;10739;52.198;20.908;2023-06-19T00:13:47;100275.00;;;18.50
45850;BMP180;10739;52.198;20.908;2023-06-19T00:16:13;100269.00;;;18.40
45850;BMP180;10739;52.198;20.908;2023-06-19T00:18:39;100272.00;;;18.50
45850;BMP180;10739;52.198;20.908;2023-06-19T00:21:08;100278.00;;;18.70
45850;BMP180;10739;52.198;20.908;2023-06-19T00:23:34;100269.00;;;18.70
45850;BMP180;10739;52.198;20.908;2023-06-19T00:26:01;100270.00;;;18.80
45850;BMP180;10739;52.198;20.908;2023-06-19T00:28:28;100271.00;;;18.70
45850;BMP180;10739;52.198;20.908;2023-06-19T00:30:54;100271.00;;;18.60
45850;BMP180;10739;52.198;20.908;2023-06-19T00:33:21;100271.00;;;18.70
45850;BMP180;10739;52.198;20.908;2023-06-19T00:35:51;100274.00;;;18.70
45850;BMP180;10739;52.198;20.908;2023-06-19T00:38:17;100273.00;;;18.60
45850;BMP180;10739;52.198;20.908;2023-06-19T00:40:43;100271.00;;;18.50
45850;BMP180;10739;52.198;20.908;2023-06-19T00:43:10;100273.00;;;18.50
45850;BMP180;10739;52.198;20.908;2023-06-19T00:45:36;100279.00;;;18.50
45850;BMP180;10739;52.198;20.908;2023-06-19T00:48:04;100274.00;;;18.40
45850;BMP180;10739;52.198;20.908;2023-06-19T00:50:31;100286.00;;;18.50
45850;BMP180;10739;52.198;20.908;2023-06-19T00:52:59;100279.00;;;18.40
45850;BMP180;10739;52.198;20.908;2023-06-19T00:55:31;100288.00;;;18.30
45850;BMP180;10739;52.198;20.908;2023-06-19T00:58:00;100288.00;;;18.20
45850;BMP180;10739;52.198;20.908;2023-06-19T01:00:26;100280.00;;;18.20
45850;BMP180;10739;52.198;20.908;2023-06-19T01:02:52;100287.00;;;18.20
45850;BMP180;10739;52.198;20.908;2023-06-19T01:05:18;100271.00;;;18.30
45850;BMP180;10739;52.198;20.908;2023-06-19T01:10:49;100272.00;;;18.10
45850;BMP180;10739;52.198;20.908;2023-06-19T01:13:41;100272.00;;;18.10
45850;BMP180;10739;52.198;20.908;2023-06-19T01:16:11;100273.00;;;18.10
45850;BMP180;10739;52.198;20.908;2023-06-19T01:18:38;100268.00;;;18.00
45850;BMP180;10739;52.198;20.908;2023-06-19T01:21:16;100262.00;;;18.00
45850;BMP180;10739;52.198;20.908;2023-06-19T01:23:44;100270.00;;;18.00
45850;BMP180;10739;52.198;20.908;2023-06-19T01:26:12;100265.00;;;17.90
45850;BMP180;10739;52.198;20.908;2023-06-19T01:28:41;100268.00;;;17.90
45850;BMP180;10739;52.198;20.908;2023-06-19T01:31:27;100263.00;;;17.80
45850;BMP180;10739;52.198;20.908;2023-06-19T01:33:57;100263.00;;;18.00
45850;BMP180;10739;52.198;20.908;2023-06-19T01:36:25;100265.00;;;18.00
45850;BMP180;10739;52.198;20.908;2023-06-19T01:38:53;100267.00;;;17.90
45850;BMP180;10739;52.198;20.908;2023-06-19T01:41:24;100278.00;;;17.90
45850;BMP180;10739;52.198;20.908;2023-06-19T01:43:52;100272.00;;;17.80
45850;BMP180;10739;52.198;20.908;2023-06-19T01:46:18;100274.00;;;17.80
45850;BMP180;10739;52.198;20.908;2023-06-19T01:48:45;100268.00;;;17.80
45850;BMP180;10739;52.198;20.908;2023-06-19T01:51:11;100267.00;;;17.80
45850;BMP180;10739;52.198;20.908;2023-06-19T01:53:37;100269.00;;;17.70
45850;BMP180;10739;52.198;20.908;2023-06-19T01:56:04;100260.00;;;17.70
45850;BMP180;10739;52.198;20.908;2023-06-19T01:58:30;100260.00;;;17.70
45850;BMP180;10739;52.198;20.908;2023-06-19T02:00:56;100265.00;;;17.80
45850;BMP180;10739;52.198;20.908;2023-06-19T02:03:22;100268.00;;;17.60
45850;BMP180;10739;52.198;20.908;2023-06-19T02:05:49;100253.00;;;17.70
45850;BMP180;10739;52.198;20.908;2023-06-19T02:08:15;100263.00;;;17.80
45850;BMP180;10739;52.198;20.908;2023-06-19T02:10:42;100269.00;;;17.60
45850;BMP180;10739;52.198;20.908;2023-06-19T02:13:08;100259.00;;;17.60
45850;BMP180;10739;52.198;20.908;2023-06-19T02:15:34;100267.00;;;17.70
45850;BMP180;10739;52.198;20.908;2023-06-19T02:18:02;100266.00;;;17.60
45850;BMP180;10739;52.198;20.908;2023-06-19T02:20:29;100268.00;;;17.60
45850;BMP180;10739;52.198;20.908;2023-06-19T02:22:55;100268.00;;;17.70
45850;BMP180;10739;52.198;20.908;2023-06-19T02:25:21;100268.00;;;17.70
45850;BMP180;10739;52.198;20.908;2023-06-19T02:27:47;100271.00;;;17.60
45850;BMP180;10739;52.198;20.908;2023-06-19T02:30:14;100279.00;;;17.50
45850;BMP180;10739;52.198;20.908;2023-06-19T02:32:40;100274.00;;;17.50
45850;BMP180;10739;52.198;20.908;2023-06-19T02:35:09;100277.00;;;17.50
45850;BMP180;10739;52.198;20.908;2023-06-19T02:37:35;100275.00;;;17.50
45850;BMP180;10739;52.198;20.908;2023-06-19T02:40:06;100275.00;;;17.60
45850;BMP180;10739;52.198;20.908;2023-06-19T02:42:32;100274.00;;;17.50
45850;BMP180;10739;52.198;20.908;2023-06-19T02:44:59;100262.00;;;17.60
45850;BMP180;10739;52.198;20.908;2023-06-19T02:47:32;100260.00;;;17.70
45850;BMP180;10739;52.198;20.908;2023-06-19T02:50:01;100269.00;;;17.80
45850;BMP180;10739;52.198;20.908;2023-06-19T02:52:27;100266.00;;;17.70
45850;BMP180;10739;52.198;20.908;2023-06-19T02:54:54;100269.00;;;17.70
45850;BMP180;10739;52.198;20.908;2023-06-19T02:57:20;100267.00;;;17.70
45850;BMP180;10739;52.198;20.908;2023-06-19T02:59:46;100267.00;;;17.70
45850;BMP180;10739;52.198;20.908;2023-06-19T03:02:13;100276.00;;;17.70
45850;BMP180;10739;52.198;20.908;2023-06-19T03:04:40;100280.00;;;17.70
45850;BMP180;10739;52.198;20.908;2023-06-19T03:07:10;100283.00;;;17.60
45850;BMP180;10739;52.198;20.908;2023-06-19T03:09:36;100281.00;;;17.70
45850;BMP180;10739;52.198;20.908;2023-06-19T03:12:03;100284.00;;;17.70
45850;BMP180;10739;52.198;20.908;2023-06-19T03:14:29;100281.00;;;17.70
45850;BMP180;10739;52.198;20.908;2023-06-19T03:16:55;100284.00;;;17.80
45850;BMP180;10739;52.198;20.908;2023-06-19T03:19:22;100276.00;;;17.80
45850;BMP180;10739;52.198;20.908;2023-06-19T03:21:48;100285.00;;;17.80
45850;BMP180;10739;52.198;20.908;2023-06-19T03:24:14;100278.00;;;18.00
45850;BMP180;10739;52.198;20.908;2023-06-19T03:26:40;100274.00;;;17.80
45850;BMP180;10739;52.198;20.908;2023-06-19T03:29:06;100284.00;;;18.10
45850;BMP180;10739;52.198;20.908;2023-06-19T03:31:33;100288.00;;;18.10
45850;BMP180;10739;52.198;20.908;2023-06-19T03:33:59;100288.00;;;18.10
45850;BMP180;10739;52.198;20.908;2023-06-19T03:36:25;100294.00;;;18.20
45850;BMP180;10739;52.198;20.908;2023-06-19T03:38:53;100293.00;;;18.20
45850;BMP180;10739;52.198;20.908;2023-06-19T03:41:20;100288.00;;;18.30
45850;BMP180;10739;52.198;20.908;2023-06-19T03:43:46;100292.00;;;18.30
45850;BMP180;10739;52.198;20.908;2023-06-19T03:46:12;100288.00;;;18.40
45850;BMP180;10739;52.198;20.908;2023-06-19T03:48:38;100294.00;;;18.50
45850;BMP180;10739;52.198;20.908;2023-06-19T03:51:04;100290.00;;;18.40
45850;BMP180;10739;52.198;20.908;2023-06-19T03:53:31;100292.00;;;18.60
45850;BMP180;10739;52.198;20.908;2023-06-19T03:55:57;100302.00;;;18.70
45850;BMP180;10739;52.198;20.908;2023-06-19T03:58:23;100294.00;;;18.80
45850;BMP180;10739;52.198;20.908;2023-06-19T04:00:49;100294.00;;;18.70
45850;BMP180;10739;52.198;20.908;2023-06-19T04:03:15;100295.00;;;18.60
45850;BMP180;10739;52.198;20.908;2023-06-19T04:05:41;100288.00;;;18.60
45850;BMP180;10739;52.198;20.908;2023-06-19T04:08:08;100284.00;;;18.70
45850;BMP180;10739;52.198;20.908;2023-06-19T04:10:34;100288.00;;;18.80
45850;BMP180;10739;52.198;20.908;2023-06-19T04:13:00;100298.00;;;18.90
45850;BMP180;10739;52.198;20.908;2023-06-19T04:15:26;100287.00;;;18.90
45850;BMP180;10739;52.198;20.908;2023-06-19T04:17:52;100290.00;;;18.90
45850;BMP180;10739;52.198;20.908;2023-06-19T04:20:19;100291.00;;;18.90
45850;BMP180;10739;52.198;20.908;2023-06-19T04:22:46;100282.00;;;18.90
45850;BMP180;10739;52.198;20.908;2023-06-19T04:25:12;100289.00;;;19.20
45850;BMP180;10739;52.198;20.908;2023-06-19T04:27:38;100296.00;;;19.30
45850;BMP180;10739;52.198;20.908;2023-06-19T04:30:06;100292.00;;;19.50
45850;BMP180;10739;52.198;20.908;2023-06-19T04:32:34;100293.00;;;19.50
45850;BMP180;10739;52.198;20.908;2023-06-19T04:35:09;100292.00;;;19.70
45850;BMP180;10739;52.198;20.908;2023-06-19T04:37:36;100295.00;;;19.70
45850;BMP180;10739;52.198;20.908;2023-06-19T04:40:03;100289.00;;;19.60
45850;BMP180;10739;52.198;20.908;2023-06-19T04:42:30;100296.00;;;19.70
45850;BMP180;10739;52.198;20.908;2023-06-19T04:44:56;100294.00;;;19.90
45850;BMP180;10739;52.198;20.908;2023-06-19T04:47:24;100298.00;;;20.00
45850;BMP180;10739;52.198;20.908;2023-06-19T04:49:51;100303.00;;;20.10
45850;BMP180;10739;52.198;20.908;2023-06-19T04:52:17;100288.00;;;20.30
45850;BMP180;10739;52.198;20.908;2023-06-19T04:54:44;100288.00;;;20.30
45850;BMP180;10739;52.198;20.908;2023-06-19T04:57:10;100295.00;;;20.30
45850;BMP180;10739;52.198;20.908;2023-06-19T04:59:37;100290.00;;;20.40
45850;BMP180;10739;52.198;20.908;2023-06-19T05:02:03;100286.00;;;20.70
45850;BMP180;10739;52.198;20.908;2023-06-19T05:04:30;100285.00;;;20.70
45850;BMP180;10739;52.198;20.908;2023-06-19T05:06:59;100283.00;;;20.90
45850;BMP180;10739;52.198;20.908;2023-06-19T05:09:25;100288.00;;;21.10
45850;BMP180;10739;52.198;20.908;2023-06-19T05:11:51;100285.00;;;21.10
45850;BMP180;10739;52.198;20.908;2023-06-19T05:14:17;100291.00;;;21.30
45850;BMP180;10739;52.198;20.908;2023-06-19T05:16:44;100290.00;;;21.10
45850;BMP180;10739;52.198;20.908;2023-06-19T05:19:10;100290.00;;;21.40
45850;BMP180;10739;52.198;20.908;2023-06-19T05:21:36;100295.00;;;21.50
45850;BMP180;10739;52.198;20.908;2023-06-19T05:24:02;100301.00;;;21.60
45850;BMP180;10739;52.198;20.908;2023-06-19T05:26:28;100306.00;;;21.60
45850;BMP180;10739;52.198;20.908;2023-06-19T05:28:55;100303.00;;;21.60
45850;BMP180;10739;52.198;20.908;2023-06-19T05:31:21;100304.00;;;21.70
45850;BMP180;10739;52.198;20.908;2023-06-19T05:33:47;100312.00;;;21.60
45850;BMP180;10739;52.198;20.908;2023-06-19T05:36:13;100320.00;;;21.40
45850;BMP180;10739;52.198;20.908;2023-06-19T05:38:39;100308.00;;;21.80
45850;BMP180;10739;52.198;20.908;2023-06-19T05:41:06;100321.00;;;22.00
45850;BMP180;10739;52.198;20.908;2023-06-19T05:43:32;100324.00;;;22.20
45850;BMP180;10739;52.198;20.908;2023-06-19T05:45:59;100335.00;;;22.40
45850;BMP180;10739;52.198;20.908;2023-06-19T05:48:28;100337.00;;;22.20
45850;BMP180;10739;52.198;20.908;2023-06-19T05:50:54;100330.00;;;22.30
45850;BMP180;10739;52.198;20.908;2023-06-19T05:53:20;100335.00;;;22.60
45850;BMP180;10739;52.198;20.908;2023-06-19T05:55:46;100335.00;;;22.70
45850;BMP180;10739;52.198;20.908;2023-06-19T05:58:13;100346.00;;;22.80
45850;BMP180;10739;52.198;20.908;2023-06-19T06:00:39;100343.00;;;22.70
45850;BMP180;10739;52.198;20.908;2023-06-19T06:03:05;100347.00;;;22.10
45850;BMP180;10739;52.198;20.908;2023-06-19T06:05:31;100353.00;;;22.40
45850;BMP180;10739;52.198;20.908;2023-06-19T06:07:58;100350.00;;;22.00
45850;BMP180;10739;52.198;20.908;2023-06-19T06:10:24;100355.00;;;22.40
45850;BMP180;10739;52.198;20.908;2023-06-19T06:12:51;100357.00;;;22.90
45850;BMP180;10739;52.198;20.908;2023-06-19T06:15:17;100357.00;;;23.00
45850;BMP180;10739;52.198;20.908;2023-06-19T06:17:43;100362.00;;;23.00
45850;BMP180;10739;52.198;20.908;2023-06-19T06:20:10;100363.00;;;23.20
45850;BMP180;10739;52.198;20.908;2023-06-19T06:22:40;100361.00;;;23.40
45850;BMP180;10739;52.198;20.908;2023-06-19T06:25:07;100365.00;;;23.00
45850;BMP180;10739;52.198;20.908;2023-06-19T06:27:34;100380.00;;;23.30
45850;BMP180;10739;52.198;20.908;2023-06-19T06:30:00;100368.00;;;23.30
45850;BMP180;10739;52.198;20.908;2023-06-19T06:32:26;100370.00;;;23.60
45850;BMP180;10739;52.198;20.908;2023-06-19T06:34:55;100369.00;;;23.60
45850;BMP180;10739;52.198;20.908;2023-06-19T06:37:21;100374.00;;;23.60
45850;BMP180;10739;52.198;20.908;2023-06-19T06:39:50;100377.00;;;24.00
45850;BMP180;10739;52.198;20.908;2023-06-19T06:42:20;100373.00;;;24.00
45850;BMP180;10739;52.198;20.908;2023-06-19T06:44:48;100382.00;;;23.90
45850;BMP180;10739;52.198;20.908;2023-06-19T06:47:14;100376.00;;;24.10
45850;BMP180;10739;52.198;20.908;2023-06-19T06:49:40;100373.00;;;24.30
45850;BMP180;10739;52.198;20.908;2023-06-19T06:52:07;100380.00;;;24.30
45850;BMP180;10739;52.198;20.908;2023-06-19T06:54:33;100385.00;;;24.30
45850;BMP180;10739;52.198;20.908;2023-06-19T06:57:00;100372.00;;;24.50
45850;BMP180;10739;52.198;20.908;2023-06-19T06:59:27;100375.00;;;24.70
45850;BMP180;10739;52.198;20.908;2023-06-19T07:01:54;100371.00;;;24.90
45850;BMP180;10739;52.198;20.908;2023-06-19T07:04:22;100372.00;;;24.60
45850;BMP180;10739;52.198;20.908;2023-06-19T07:06:49;100368.00;;;24.60
45850;BMP180;10739;52.198;20.908;2023-06-19T07:09:15;100362.00;;;24.50
45850;BMP180;10739;52.198;20.908;2023-06-19T07:11:41;100365.00;;;24.50
45850;BMP180;10739;52.198;20.908;2023-06-19T07:14:07;100359.00;;;24.60
45850;BMP180;10739;52.198;20.908;2023-06-19T07:16:34;100367.00;;;24.90
45850;BMP180;10739;52.198;20.908;2023-06-19T07:19:00;100368.00;;;25.00
45850;BMP180;10739;52.198;20.908;2023-06-19T07:21:28;100362.00;;;25.20
45850;BMP180;10739;52.198;20.908;2023-06-19T07:23:54;100364.00;;;25.30
45850;BMP180;10739;52.198;20.908;2023-06-19T07:26:21;100366.00;;;25.30
45850;BMP180;10739;52.198;20.908;2023-06-19T07:28:47;100361.00;;;25.10
45850;BMP180;10739;52.198;20.908;2023-06-19T07:31:13;100367.00;;;24.90
45850;BMP180;10739;52.198;20.908;2023-06-19T07:33:39;100364.00;;;25.10
45850;BMP180;10739;52.198;20.908;2023-06-19T07:36:06;100364.00;;;25.50
45850;BMP180;10739;52.198;20.908;2023-06-19T07:38:32;100371.00;;;25.50
45850;BMP180;10739;52.198;20.908;2023-06-19T07:40:58;100364.00;;;25.90
45850;BMP180;10739;52.198;20.908;2023-06-19T07:43:25;100358.00;;;25.80
45850;BMP180;10739;52.198;20.908;2023-06-19T07:45:50;100368.00;;;26.10
45850;BMP180;10739;52.198;20.908;2023-06-19T07:48:17;100376.00;;;26.20
45850;BMP180;10739;52.198;20.908;2023-06-19T07:50:43;100377.00;;;25.80
45850;BMP180;10739;52.198;20.908;2023-06-19T07:53:09;100377.00;;;26.00
45850;BMP180;10739;52.198;20.908;2023-06-19T07:55:36;100379.00;;;26.00
45850;BMP180;10739;52.198;20.908;2023-06-19T07:58:02;100369.00;;;25.90
45850;BMP180;10739;52.198;20.908;2023-06-19T08:00:28;100373.00;;;26.40
45850;BMP180;10739;52.198;20.908;2023-06-19T08:02:54;100365.00;;;26.80
45850;BMP180;10739;52.198;20.908;2023-06-19T08:05:20;100374.00;;;26.80
45850;BMP180;10739;52.198;20.908;2023-06-19T08:07:46;100374.00;;;25.90
45850;BMP180;10739;52.198;20.908;2023-06-19T08:10:12;100376.00;;;25.70
45850;BMP180;10739;52.198;20.908;2023-06-19T08:12:40;100378.00;;;25.90
45850;BMP180;10739;52.198;20.908;2023-06-19T08:15:07;100371.00;;;26.50
45850;BMP180;10739;52.198;20.908;2023-06-19T08:17:33;100371.00;;;26.80
45850;BMP180;10739;52.198;20.908;2023-06-19T08:20:01;100373.00;;;26.90
45850;BMP180;10739;52.198;20.908;2023-06-19T08:22:27;100369.00;;;27.10
45850;BMP180;10739;52.198;20.908;2023-06-19T08:24:53;100372.00;;;27.50
45850;BMP180;10739;52.198;20.908;2023-06-19T08:27:19;100369.00;;;27.60
45850;BMP180;10739;52.198;20.908;2023-06-19T08:29:45;100373.00;;;27.30
45850;BMP180;10739;52.198;20.908;2023-06-19T08:32:11;100379.00;;;27.50
45850;BMP180;10739;52.198;20.908;2023-06-19T08:34:37;100377.00;;;27.70
45850;BMP180;10739;52.198;20.908;2023-06-19T08:37:05;100376.00;;;27.80
45850;BMP180;10739;52.198;20.908;2023-06-19T08:39:32;100374.00;;;28.00
45850;BMP180;10739;52.198;20.908;2023-06-19T08:41:58;100378.00;;;28.40
45850;BMP180;10739;52.198;20.908;2023-06-19T08:44:24;100387.00;;;28.50
45850;BMP180;10739;52.198;20.908;2023-06-19T08:46:51;100383.00;;;28.10
45850;BMP180;10739;52.198;20.908;2023-06-19T08:49:17;100380.00;;;28.50
45850;BMP180;10739;52.198;20.908;2023-06-19T08:51:43;100384.00;;;28.50
45850;BMP180;10739;52.198;20.908;2023-06-19T08:54:09;100385.00;;;28.40
45850;BMP180;10739;52.198;20.908;2023-06-19T08:56:36;100391.00;;;28.60
45850;BMP180;10739;52.198;20.908;2023-06-19T08:59:12;100389.00;;;28.00
45850;BMP180;10739;52.198;20.908;2023-06-19T09:01:39;100380.00;;;28.80
45850;BMP180;10739;52.198;20.908;2023-06-19T09:04:13;100381.00;;;29.30
45850;BMP180;10739;52.198;20.908;2023-06-19T09:06:56;100379.00;;;28.70
45850;BMP180;10739;52.198;20.908;2023-06-19T09:09:25;100375.00;;;28.50
45850;BMP180;10739;52.198;20.908;2023-06-19T09:11:58;100376.00;;;29.10
45850;BMP180;10739;52.198;20.908;2023-06-19T09:14:45;100373.00;;;29.20
45850;BMP180;10739;52.198;20.908;2023-06-19T09:17:17;100379.00;;;28.60
45850;BMP180;10739;52.198;20.908;2023-06-19T09:19:53;100376.00;;;29.10
45850;BMP180;10739;52.198;20.908;2023-06-19T09:22:23;100371.00;;;29.50
45850;BMP180;10739;52.198;20.908;2023-06-19T09:24:53;100367.00;;;29.90
45850;BMP180;10739;52.198;20.908;2023-06-19T09:27:24;100368.00;;;29.40
45850;BMP180;10739;52.198;20.908;2023-06-19T09:29:55;100373.00;;;29.50
45850;BMP180;10739;52.198;20.908;2023-06-19T09:32:26;100371.00;;;29.60
45850;BMP180;10739;52.198;20.908;2023-06-19T09:34:57;100372.00;;;30.00
45850;BMP180;10739;52.198;20.908;2023-06-19T09:37:30;100374.00;;;29.40
45850;BMP180;10739;52.198;20.908;2023-06-19T09:40:00;100377.00;;;29.50
45850;BMP180;10739;52.198;20.908;2023-06-19T09:42:30;100384.00;;;29.70
45850;BMP180;10739;52.198;20.908;2023-06-19T09:45:03;100384.00;;;29.10
45850;BMP180;10739;52.198;20.908;2023-06-19T09:47:34;100378.00;;;29.60
45850;BMP180;10739;52.198;20.908;2023-06-19T09:50:04;100384.00;;;29.70
45850;BMP180;10739;52.198;20.908;2023-06-19T09:52:30;100383.00;;;28.90
45850;BMP180;10739;52.198;20.908;2023-06-19T09:54:56;100382.00;;;28.80
45850;BMP180;10739;52.198;20.908;2023-06-19T09:57:26;100374.00;;;29.50
45850;BMP180;10739;52.198;20.908;2023-06-19T09:59:57;100375.00;;;30.20
45850;BMP180;10739;52.198;20.908;2023-06-19T10:02:27;100375.00;;;30.90
45850;BMP180;10739;52.198;20.908;2023-06-19T10:04:55;100375.00;;;31.10
45850;BMP180;10739;52.198;20.908;2023-06-19T10:07:25;100370.00;;;31.00
45850;BMP180;10739;52.198;20.908;2023-06-19T10:10:09;100363.00;;;31.70
45850;BMP180;10739;52.198;20.908;2023-06-19T10:12:44;100365.00;;;32.10
45850;BMP180;10739;52.198;20.908;2023-06-19T10:18:03;100373.00;;;32.10
45850;BMP180;10739;52.198;20.908;2023-06-19T10:20:39;100358.00;;;32.20
45850;BMP180;10739;52.198;20.908;2023-06-19T10:23:25;100369.00;;;32.30
45850;BMP180;10739;52.198;20.908;2023-06-19T10:25:56;100370.00;;;32.10
45850;BMP180;10739;52.198;20.908;2023-06-19T10:28:33;100373.00;;;33.00
45850;BMP180;10739;52.198;20.908;2023-06-19T10:31:06;100369.00;;;33.40
45850;BMP180;10739;52.198;20.908;2023-06-19T10:33:35;100370.00;;;33.00
45850;BMP180;10739;52.198;20.908;2023-06-19T10:36:23;100367.00;;;32.80
45850;BMP180;10739;52.198;20.908;2023-06-19T10:38:51;100364.00;;;31.80
45850;BMP180;10739;52.198;20.908;2023-06-19T10:41:24;100362.00;;;32.50
45850;BMP180;10739;52.198;20.908;2023-06-19T10:44:04;100367.00;;;33.10
45850;BMP180;10739;52.198;20.908;2023-06-19T10:46:34;100366.00;;;33.00
45850;BMP180;10739;52.198;20.908;2023-06-19T10:49:03;100359.00;;;33.00
45850;BMP180;10739;52.198;20.908;2023-06-19T10:51:33;100356.00;;;33.10
45850;BMP180;10739;52.198;20.908;2023-06-19T10:54:00;100365.00;;;33.90
45850;BMP180;10739;52.198;20.908;2023-06-19T10:56:26;100354.00;;;33.40
45850;BMP180;10739;52.198;20.908;2023-06-19T10:59:09;100361.00;;;33.10
45850;BMP180;10739;52.198;20.908;2023-06-19T11:01:46;100360.00;;;33.60
45850;BMP180;10739;52.198;20.908;2023-06-19T11:04:15;100365.00;;;33.80
45850;BMP180;10739;52.198;20.908;2023-06-19T11:06:44;100360.00;;;34.20
45850;BMP180;10739;52.198;20.908;2023-06-19T11:09:12;100362.00;;;34.30
45850;BMP180;10739;52.198;20.908;2023-06-19T11:11:44;100358.00;;;35.00
45850;BMP180;10739;52.198;20.908;2023-06-19T11:14:13;100356.00;;;35.10
45850;BMP180;10739;52.198;20.908;2023-06-19T11:16:43;100366.00;;;35.20
45850;BMP180;10739;52.198;20.908;2023-06-19T11:19:15;100354.00;;;35.00
45850;BMP180;10739;52.198;20.908;2023-06-19T11:21:50;100355.00;;;35.20
45850;BMP180;10739;52.198;20.908;2023-06-19T11:24:18;100353.00;;;35.50
45850;BMP180;10739;52.198;20.908;2023-06-19T11:26:47;100351.00;;;35.80
45850;BMP180;10739;52.198;20.908;2023-06-19T11:29:22;100349.00;;;35.70
45850;BMP180;10739;52.198;20.908;2023-06-19T11:31:50;100358.00;;;36.20
45850;BMP180;10739;52.198;20.908;2023-06-19T11:34:17;100342.00;;;35.40
45850;BMP180;10739;52.198;20.908;2023-06-19T11:36:44;100350.00;;;35.40
45850;BMP180;10739;52.198;20.908;2023-06-19T11:39:15;100356.00;;;34.60
45850;BMP180;10739;52.198;20.908;2023-06-19T11:41:44;100354.00;;;34.00
45850;BMP180;10739;52.198;20.908;2023-06-19T11:44:10;100354.00;;;33.20
45850;BMP180;10739;52.198;20.908;2023-06-19T11:46:37;100350.00;;;32.80
45850;BMP180;10739;52.198;20.908;2023-06-19T11:49:13;100346.00;;;32.40
45850;BMP180;10739;52.198;20.908;2023-06-19T11:51:40;100349.00;;;31.70
45850;BMP180;10739;52.198;20.908;2023-06-19T11:54:08;100350.00;;;31.60
45850;BMP180;10739;52.198;20.908;2023-06-19T11:56:36;100345.00;;;31.70
45850;BMP180;10739;52.198;20.908;2023-06-19T11:59:03;100342.00;;;31.60
45850;BMP180;10739;52.198;20.908;2023-06-19T12:01:32;100344.00;;;31.50
45850;BMP180;10739;52.198;20.908;2023-06-19T12:03:59;100340.00;;;32.00
45850;BMP180;10739;52.198;20.908;2023-06-19T12:06:27;100337.00;;;32.40
45850;BMP180;10739;52.198;20.908;2023-06-19T12:08:54;100335.00;;;32.80
45850;BMP180;10739;52.198;20.908;2023-06-19T12:11:20;100331.00;;;32.80
45850;BMP180;10739;52.198;20.908;2023-06-19T12:13:46;100323.00;;;33.70
45850;BMP180;10739;52.198;20.908;2023-06-19T12:16:14;100331.00;;;34.30
45850;BMP180;10739;52.198;20.908;2023-06-19T12:18:41;100324.00;;;34.60
45850;BMP180;10739;52.198;20.908;2023-06-19T12:21:08;100334.00;;;33.70
45850;BMP180;10739;52.198;20.908;2023-06-19T12:23:34;100320.00;;;34.80
45850;BMP180;10739;52.198;20.908;2023-06-19T12:26:00;100332.00;;;35.60
45850;BMP180;10739;52.198;20.908;2023-06-19T12:28:26;100322.00;;;35.60
45850;BMP180;10739;52.198;20.908;2023-06-19T12:30:53;100313.00;;;35.40
45850;BMP180;10739;52.198;20.908;2023-06-19T12:33:20;100318.00;;;35.70
45850;BMP180;10739;52.198;20.908;2023-06-19T12:35:49;100321.00;;;36.30
45850;BMP180;10739;52.198;20.908;2023-06-19T12:38:15;100319.00;;;36.10
45850;BMP180;10739;52.198;20.908;2023-06-19T12:40:42;100317.00;;;36.10
45850;BMP180;10739;52.198;20.908;2023-06-19T12:43:08;100319.00;;;35.80
45850;BMP180;10739;52.198;20.908;2023-06-19T12:45:34;100321.00;;;36.50
45850;BMP180;10739;52.198;20.908;2023-06-19T12:48:00;100313.00;;;37.30
45850;BMP180;10739;52.198;20.908;2023-06-19T12:50:26;100308.00;;;37.30
45850;BMP180;10739;52.198;20.908;2023-06-19T12:52:53;100314.00;;;37.50
45850;BMP180;10739;52.198;20.908;2023-06-19T12:55:19;100313.00;;;37.80
45850;BMP180;10739;52.198;20.908;2023-06-19T12:57:45;100302.00;;;36.30
45850;BMP180;10739;52.198;20.908;2023-06-19T13:00:12;100313.00;;;35.60
45850;BMP180;10739;52.198;20.908;2023-06-19T13:02:40;100288.00;;;35.10
45850;BMP180;10739;52.198;20.908;2023-06-19T13:05:07;100302.00;;;35.50
45850;BMP180;10739;52.198;20.908;2023-06-19T13:07:33;100295.00;;;35.90
45850;BMP180;10739;52.198;20.908;2023-06-19T13:09:59;100293.00;;;35.10
45850;BMP180;10739;52.198;20.908;2023-06-19T13:12:25;100292.00;;;35.30
45850;BMP180;10739;52.198;20.908;2023-06-19T13:14:52;100297.00;;;36.30
45850;BMP180;10739;52.198;20.908;2023-06-19T13:17:19;100288.00;;;36.60
45850;BMP180;10739;52.198;20.908;2023-06-19T13:19:45;100288.00;;;36.40
45850;BMP180;10739;52.198;20.908;2023-06-19T13:22:11;100285.00;;;37.60
45850;BMP180;10739;52.198;20.908;2023-06-19T13:24:38;100278.00;;;37.90
45850;BMP180;10739;52.198;20.908;2023-06-19T13:27:04;100274.00;;;37.40
45850;BMP180;10739;52.198;20.908;2023-06-19T13:29:30;100282.00;;;36.00
45850;BMP180;10739;52.198;20.908;2023-06-19T13:31:57;100275.00;;;35.50
45850;BMP180;10739;52.198;20.908;2023-06-19T13:34:23;100275.00;;;35.00
45850;BMP180;10739;52.198;20.908;2023-06-19T13:36:49;100278.00;;;36.20
45850;BMP180;10739;52.198;20.908;2023-06-19T13:39:17;100264.00;;;36.70
45850;BMP180;10739;52.198;20.908;2023-06-19T13:41:46;100280.00;;;35.40
45850;BMP180;10739;52.198;20.908;2023-06-19T13:44:13;100267.00;;;35.30
45850;BMP180;10739;52.198;20.908;2023-06-19T13:46:39;100272.00;;;35.50
45850;BMP180;10739;52.198;20.908;2023-06-19T13:49:05;100267.00;;;36.20
45850;BMP180;10739;52.198;20.908;2023-06-19T13:51:32;100267.00;;;36.50
45850;BMP180;10739;52.198;20.908;2023-06-19T13:53:58;100265.00;;;37.50